createdAt,value
2018-12-14T00:00:07.429Z,2.40
2018-12-14T00:02:34.930Z,2.50
2018-12-14T00:05:02.447Z,2.40
2018-12-14T00:07:29.932Z,2.50
2018-12-14T00:09:57.408Z,2.50
2018-12-14T00:12:24.996Z,2.50
2018-12-14T00:14:52.542Z,2.50
2018-12-14T00:17:20.066Z,2.50
2018-12-14T00:19:47.567Z,2.50
2018-12-14T00:22:15.143Z,2.40
2018-12-14T00:24:42.619Z,2.40
2018-12-14T00:27:10.239Z,2.40
2018-12-14T00:29:38.303Z,2.50
2018-12-14T00:32:05.971Z,2.50
2018-12-14T00:34:33.488Z,2.40
2018-12-14T00:37:00.988Z,2.40
2018-12-14T00:39:28.549Z,2.40
2018-12-14T00:41:56.025Z,2.40
2018-12-14T00:44:23.525Z,2.40
2018-12-14T00:46:51.042Z,2.40
2018-12-14T00:49:18.592Z,2.40
2018-12-14T00:51:46.200Z,2.30
2018-12-14T00:54:13.723Z,2.40
2018-12-14T00:56:41.210Z,2.40
2018-12-14T00:59:08.741Z,2.40
2018-12-14T01:01:36.273Z,2.30
2018-12-14T01:04:03.749Z,2.30
2018-12-14T01:06:31.351Z,2.40
2018-12-14T01:08:58.916Z,2.30
2018-12-14T01:11:26.400Z,2.40
2018-12-14T01:13:54.120Z,2.30
2018-12-14T01:16:21.624Z,2.30
2018-12-14T01:18:49.111Z,2.30
2018-12-14T01:21:16.591Z,2.30
2018-12-14T01:23:44.071Z,2.30
2018-12-14T01:26:11.589Z,2.30
2018-12-14T01:28:39.068Z,2.30
2018-12-14T01:31:06.557Z,2.30
2018-12-14T01:33:34.080Z,2.30
2018-12-14T01:36:01.551Z,2.30
2018-12-14T01:38:29.036Z,2.40
2018-12-14T01:40:56.521Z,2.20
2018-12-14T01:43:24.344Z,2.30
2018-12-14T01:45:51.873Z,2.30
2018-12-14T01:48:19.437Z,2.30
2018-12-14T01:50:47.023Z,2.30
2018-12-14T01:53:14.496Z,2.30
2018-12-14T01:55:41.977Z,2.20
2018-12-14T01:58:09.498Z,2.20
2018-12-14T02:00:36.961Z,2.20
2018-12-14T02:03:04.509Z,2.10
2018-12-14T02:05:32.002Z,2.10
2018-12-14T02:07:59.512Z,2.10
2018-12-14T02:10:26.989Z,2.10
2018-12-14T02:12:54.494Z,2.10
2018-12-14T02:15:21.976Z,2.00
2018-12-14T02:17:49.480Z,2.00
2018-12-14T02:20:16.984Z,2.00
2018-12-14T02:22:44.495Z,2.00
2018-12-14T02:25:11.967Z,2.00
2018-12-14T02:27:39.513Z,1.90
2018-12-14T02:30:18.961Z,1.90
2018-12-14T02:32:46.588Z,1.90
2018-12-14T02:35:14.076Z,1.90
2018-12-14T02:37:41.577Z,1.90
2018-12-14T02:40:09.181Z,1.90
2018-12-14T02:42:36.666Z,1.80
2018-12-14T02:45:05.131Z,1.80
2018-12-14T02:47:32.705Z,1.70
2018-12-14T02:50:00.280Z,1.70
2018-12-14T02:52:27.776Z,1.70
2018-12-14T02:54:55.260Z,1.60
2018-12-14T02:57:22.822Z,1.60
2018-12-14T02:59:50.311Z,1.60
2018-12-14T03:02:17.795Z,1.70
2018-12-14T03:04:45.274Z,1.60
2018-12-14T03:07:12.769Z,1.60
2018-12-14T03:09:40.311Z,1.60
2018-12-14T03:12:07.816Z,1.70
2018-12-14T03:14:35.305Z,1.50
2018-12-14T03:17:02.781Z,1.60
2018-12-14T03:19:30.315Z,1.60
2018-12-14T03:21:57.825Z,1.60
2018-12-14T03:24:25.418Z,1.60
2018-12-14T03:26:52.909Z,1.60
2018-12-14T03:29:20.420Z,1.70
2018-12-14T03:31:48.190Z,1.70
2018-12-14T03:34:15.847Z,1.70
2018-12-14T03:36:43.357Z,1.80
2018-12-14T03:39:10.976Z,1.80
2018-12-14T03:41:38.582Z,1.70
2018-12-14T03:44:06.095Z,1.70
2018-12-14T03:46:33.637Z,1.70
2018-12-14T03:49:01.203Z,1.70
2018-12-14T03:51:28.763Z,1.80
2018-12-14T03:53:56.305Z,1.70
2018-12-14T03:56:23.883Z,1.70
2018-12-14T03:58:51.442Z,1.70
2018-12-14T04:01:18.928Z,1.70
2018-12-14T04:03:46.409Z,1.70
2018-12-14T04:06:13.917Z,1.70
2018-12-14T04:08:41.408Z,1.80
2018-12-14T04:11:10.945Z,1.80
2018-12-14T04:13:38.447Z,1.70
2018-12-14T04:16:06.376Z,1.70
2018-12-14T04:18:33.873Z,1.70
2018-12-14T04:21:01.365Z,1.70
2018-12-14T04:23:28.931Z,1.60
2018-12-14T04:25:56.468Z,1.60
2018-12-14T04:28:23.960Z,1.60
2018-12-14T04:30:51.480Z,1.50
2018-12-14T04:33:18.954Z,1.50
2018-12-14T04:35:46.450Z,1.60
2018-12-14T04:38:13.966Z,1.60
2018-12-14T04:40:41.484Z,1.60
2018-12-14T04:43:08.972Z,1.60
2018-12-14T04:45:36.576Z,1.60
2018-12-14T04:48:04.058Z,1.60
2018-12-14T04:50:31.547Z,1.50
2018-12-14T04:52:59.130Z,1.50
2018-12-14T04:55:26.859Z,1.50
2018-12-14T04:57:54.380Z,1.50
2018-12-14T05:00:21.932Z,1.60
2018-12-14T05:02:49.497Z,1.60
2018-12-14T05:05:16.993Z,1.60
2018-12-14T05:07:44.470Z,1.60
2018-12-14T05:10:12.033Z,1.60
2018-12-14T05:12:39.632Z,1.60
2018-12-14T05:15:07.194Z,1.60
2018-12-14T05:17:34.800Z,1.60
2018-12-14T05:20:02.380Z,1.60
2018-12-14T05:22:29.955Z,1.60
2018-12-14T05:24:57.514Z,1.60
2018-12-14T05:27:25.341Z,1.60
2018-12-14T05:29:53.117Z,1.60
2018-12-14T05:32:20.626Z,1.70
2018-12-14T05:34:48.191Z,1.60
2018-12-14T05:37:15.711Z,1.60
2018-12-14T05:39:43.210Z,1.50
2018-12-14T05:42:10.703Z,1.50
2018-12-14T05:44:38.162Z,1.50
2018-12-14T05:47:05.665Z,1.50
2018-12-14T05:49:33.148Z,1.50
2018-12-14T05:52:00.643Z,1.40
2018-12-14T05:54:28.145Z,1.40
2018-12-14T05:56:55.718Z,1.30
2018-12-14T05:59:23.196Z,1.30
2018-12-14T06:01:50.719Z,1.40
2018-12-14T06:04:18.215Z,1.40
2018-12-14T06:06:45.698Z,1.30
2018-12-14T06:09:13.293Z,1.40
2018-12-14T06:11:40.781Z,1.40
2018-12-14T06:14:08.267Z,1.40
2018-12-14T06:16:35.746Z,1.40
2018-12-14T06:19:03.356Z,1.30
2018-12-14T06:21:30.856Z,1.30
2018-12-14T06:23:58.363Z,1.30
2018-12-14T06:26:25.828Z,1.20
2018-12-14T06:28:53.385Z,1.20
2018-12-14T06:31:20.901Z,1.20
2018-12-14T06:33:48.398Z,1.10
2018-12-14T06:36:15.881Z,1.10
2018-12-14T06:38:43.427Z,1.20
2018-12-14T06:41:10.982Z,1.20
2018-12-14T06:43:38.537Z,1.20
2018-12-14T06:46:06.238Z,1.30
2018-12-14T06:48:33.736Z,1.30
2018-12-14T06:51:01.619Z,1.30
2018-12-14T06:53:29.225Z,1.30
2018-12-14T06:55:56.689Z,1.30
2018-12-14T06:58:24.200Z,1.30
2018-12-14T07:00:51.693Z,1.30
2018-12-14T07:03:19.208Z,1.30
2018-12-14T07:05:46.708Z,1.20
2018-12-14T07:08:14.197Z,1.20
2018-12-14T07:10:41.726Z,1.20
2018-12-14T07:13:09.200Z,1.20
2018-12-14T07:15:36.744Z,1.20
2018-12-14T07:18:04.805Z,1.20
2018-12-14T07:20:32.602Z,1.20
2018-12-14T07:23:00.141Z,1.20
2018-12-14T07:25:27.629Z,1.20
2018-12-14T07:27:55.157Z,1.20
2018-12-14T07:30:22.779Z,1.20
2018-12-14T07:32:50.318Z,1.30
2018-12-14T07:35:17.807Z,1.30
2018-12-14T07:37:45.286Z,1.30
2018-12-14T07:40:12.801Z,1.20
2018-12-14T07:42:40.278Z,1.20
2018-12-14T07:45:07.902Z,1.30
2018-12-14T07:47:35.390Z,1.30
2018-12-14T07:50:03.425Z,1.30
2018-12-14T07:52:30.938Z,1.30
2018-12-14T07:54:58.524Z,1.30
2018-12-14T07:57:26.020Z,1.20
2018-12-14T07:59:53.651Z,1.20
2018-12-14T08:02:21.146Z,1.20
2018-12-14T08:04:48.610Z,1.30
2018-12-14T08:07:16.334Z,1.30
2018-12-14T08:09:43.901Z,1.30
2018-12-14T08:12:11.439Z,1.30
2018-12-14T08:14:38.920Z,1.30
2018-12-14T08:17:06.453Z,1.20
2018-12-14T08:19:33.951Z,1.10
2018-12-14T08:22:01.502Z,1.10
2018-12-14T08:24:29.000Z,1.10
2018-12-14T08:26:56.521Z,1.10
2018-12-14T08:29:24.097Z,1.10
2018-12-14T08:31:51.598Z,1.10
2018-12-14T08:34:19.195Z,1.10
2018-12-14T08:36:46.702Z,1.10
2018-12-14T08:39:14.208Z,1.20
2018-12-14T08:41:41.718Z,1.20
2018-12-14T08:44:09.236Z,1.20
2018-12-14T08:46:36.737Z,1.30
2018-12-14T08:49:04.270Z,1.30
2018-12-14T08:51:31.818Z,1.30
2018-12-14T08:53:59.285Z,1.30
2018-12-14T08:56:26.854Z,1.40
2018-12-14T08:58:54.396Z,1.40
2018-12-14T09:01:21.899Z,1.40
2018-12-14T09:03:49.404Z,1.40
2018-12-14T09:06:16.887Z,1.40
2018-12-14T09:08:44.448Z,1.40
2018-12-14T09:11:12.014Z,1.40
2018-12-14T09:13:39.491Z,1.40
2018-12-14T09:16:06.978Z,1.40
2018-12-14T09:18:34.472Z,1.50
2018-12-14T09:21:01.952Z,1.50
2018-12-14T09:23:29.516Z,1.50
2018-12-14T09:25:57.047Z,1.50
2018-12-14T09:28:24.567Z,1.50
2018-12-14T09:30:52.046Z,1.50
2018-12-14T09:33:19.539Z,1.50
2018-12-14T09:35:47.022Z,1.50
2018-12-14T09:38:14.502Z,1.50
2018-12-14T09:40:42.028Z,1.50
2018-12-14T09:43:09.537Z,1.60
2018-12-14T09:45:37.023Z,1.60
2018-12-14T09:48:04.525Z,1.60
2018-12-14T09:50:32.070Z,1.60
2018-12-14T09:52:59.608Z,1.60
2018-12-14T09:55:27.083Z,1.70
2018-12-14T09:57:54.576Z,1.70
2018-12-14T10:00:22.116Z,1.70
2018-12-14T10:02:49.582Z,1.70
2018-12-14T10:05:17.066Z,1.70
2018-12-14T10:07:46.939Z,1.70
2018-12-14T10:10:14.072Z,1.80
2018-12-14T10:12:41.560Z,1.80
2018-12-14T10:15:09.028Z,1.90
2018-12-14T10:17:36.565Z,1.90
2018-12-14T10:20:06.784Z,1.90
2018-12-14T10:22:34.530Z,1.90
2018-12-14T10:25:02.062Z,1.90
2018-12-14T10:27:29.560Z,1.90
2018-12-14T10:29:57.077Z,1.90
2018-12-14T10:32:24.561Z,1.90
2018-12-14T10:34:52.060Z,1.90
2018-12-14T10:37:19.597Z,1.90
2018-12-14T10:39:47.112Z,1.90
2018-12-14T10:42:14.643Z,1.90
2018-12-14T10:44:42.114Z,1.90
2018-12-14T10:47:09.601Z,2.00
2018-12-14T10:49:37.108Z,2.00
2018-12-14T10:52:04.644Z,2.10
2018-12-14T10:54:32.349Z,2.00
2018-12-14T10:56:59.873Z,2.00
2018-12-14T10:59:27.433Z,2.10
2018-12-14T11:01:56.312Z,2.10
2018-12-14T11:04:25.337Z,2.00
2018-12-14T11:06:53.612Z,2.00
2018-12-14T11:09:21.104Z,2.10
2018-12-14T11:11:48.648Z,2.10
2018-12-14T11:14:16.144Z,2.10
2018-12-14T11:16:43.624Z,2.10
2018-12-14T11:19:11.205Z,2.10
2018-12-14T11:21:38.748Z,2.10
2018-12-14T11:24:06.272Z,2.20
2018-12-14T11:26:36.550Z,2.20
2018-12-14T11:29:04.066Z,2.20
2018-12-14T11:31:31.558Z,2.20
2018-12-14T11:33:59.035Z,2.20
2018-12-14T11:36:26.547Z,2.20
2018-12-14T11:38:54.036Z,2.20
2018-12-14T11:41:21.607Z,2.20
2018-12-14T11:43:49.080Z,2.30
2018-12-14T11:46:16.658Z,2.30
2018-12-14T11:48:44.227Z,2.40
2018-12-14T11:51:12.422Z,2.40
2018-12-14T11:53:39.933Z,2.50
2018-12-14T11:56:07.437Z,2.60
2018-12-14T11:58:34.939Z,2.60
2018-12-14T12:01:02.517Z,2.70
2018-12-14T12:03:29.985Z,2.70
2018-12-14T12:05:57.473Z,2.80
2018-12-14T12:08:24.962Z,2.80
2018-12-14T12:10:52.540Z,2.80
2018-12-14T12:13:20.121Z,2.70
2018-12-14T12:15:47.629Z,2.70
2018-12-14T12:18:15.111Z,2.70
2018-12-14T12:20:42.671Z,2.70
2018-12-14T12:23:10.133Z,2.70
2018-12-14T12:25:37.655Z,2.70
2018-12-14T12:28:05.173Z,2.60
2018-12-14T12:30:32.673Z,2.50
2018-12-14T12:33:00.145Z,2.40
2018-12-14T12:35:27.751Z,2.30
2018-12-14T12:37:55.278Z,2.20
2018-12-14T12:40:22.792Z,2.20
2018-12-14T12:42:50.330Z,2.10
2018-12-14T12:45:17.894Z,2.10
2018-12-14T12:47:45.413Z,2.10
2018-12-14T12:50:12.904Z,2.10
2018-12-14T12:52:40.423Z,2.10
2018-12-14T12:55:07.900Z,2.20
2018-12-14T12:57:35.425Z,2.10
2018-12-14T13:00:03.050Z,2.00
2018-12-14T13:02:30.541Z,2.00
2018-12-14T13:04:58.014Z,2.00
2018-12-14T13:07:25.484Z,2.00
2018-12-14T13:09:52.960Z,2.00
2018-12-14T13:12:20.444Z,2.00
2018-12-14T13:14:47.909Z,2.00
2018-12-14T13:17:15.459Z,1.90
2018-12-14T13:19:43.020Z,1.90
2018-12-14T13:22:10.583Z,2.00
2018-12-14T13:24:38.054Z,2.00
2018-12-14T13:27:05.601Z,2.00
2018-12-14T13:29:33.064Z,2.10
2018-12-14T13:32:00.581Z,2.10
2018-12-14T13:34:28.065Z,2.10
2018-12-14T13:36:55.536Z,2.10
2018-12-14T13:39:23.045Z,2.10
2018-12-14T13:41:50.566Z,2.10
2018-12-14T13:44:18.130Z,2.00
2018-12-14T13:46:45.621Z,2.00
2018-12-14T13:49:13.119Z,2.00
2018-12-14T13:51:40.717Z,2.00
2018-12-14T13:54:08.231Z,2.00
2018-12-14T13:56:35.695Z,2.00
2018-12-14T13:59:03.309Z,2.10
2018-12-14T14:01:30.841Z,2.00
2018-12-14T14:03:58.345Z,2.10
2018-12-14T14:06:25.919Z,2.10
2018-12-14T14:08:53.436Z,2.20
2018-12-14T14:11:20.909Z,2.20
2018-12-14T14:13:48.470Z,2.20
2018-12-14T14:16:15.953Z,2.20
2018-12-14T14:18:43.450Z,2.20
2018-12-14T14:21:11.015Z,2.20
2018-12-14T14:23:38.502Z,2.20
2018-12-14T14:26:06.063Z,2.20
2018-12-14T14:28:33.706Z,2.10
2018-12-14T14:31:01.402Z,2.10
2018-12-14T14:33:28.877Z,2.10
2018-12-14T14:35:56.419Z,2.00
2018-12-14T14:38:23.950Z,2.00
2018-12-14T14:40:51.416Z,2.00
2018-12-14T14:43:18.934Z,2.00
2018-12-14T14:45:46.444Z,2.00
2018-12-14T14:48:13.982Z,2.00
2018-12-14T14:50:41.501Z,2.00
2018-12-14T14:53:09.009Z,2.00
2018-12-14T14:55:36.589Z,2.00
2018-12-14T14:58:04.143Z,2.00
2018-12-14T15:00:32.061Z,2.00
2018-12-14T15:02:59.748Z,1.90
2018-12-14T15:05:27.229Z,1.90
2018-12-14T15:07:54.789Z,2.00
2018-12-14T15:10:22.307Z,2.00
2018-12-14T15:12:49.787Z,2.00
2018-12-14T15:15:17.369Z,2.00
2018-12-14T15:17:44.849Z,2.00
2018-12-14T15:20:12.386Z,2.00
2018-12-14T15:22:39.887Z,2.00
2018-12-14T15:25:07.386Z,2.00
2018-12-14T15:27:34.952Z,2.00
2018-12-14T15:30:02.727Z,2.00
2018-12-14T15:32:30.696Z,1.90
2018-12-14T15:34:59.306Z,1.90
2018-12-14T15:37:26.965Z,1.90
2018-12-14T15:39:54.449Z,1.90
2018-12-14T15:42:21.978Z,1.80
2018-12-14T15:44:49.477Z,1.70
2018-12-14T15:47:16.998Z,1.70
2018-12-14T15:49:44.558Z,1.70
2018-12-14T15:52:12.058Z,1.60
2018-12-14T15:54:39.570Z,1.60
2018-12-14T15:57:07.071Z,1.70
2018-12-14T15:59:34.595Z,1.70
2018-12-14T16:02:02.125Z,1.70
2018-12-14T16:04:29.645Z,1.70
2018-12-14T16:06:57.210Z,1.60
2018-12-14T16:09:24.748Z,1.70
2018-12-14T16:11:52.259Z,1.60
2018-12-14T16:14:19.778Z,1.70
2018-12-14T16:16:47.439Z,1.60
2018-12-14T16:19:15.021Z,1.70
2018-12-14T16:21:42.536Z,1.70
2018-12-14T16:24:10.015Z,1.80
2018-12-14T16:26:37.573Z,1.80
2018-12-14T16:29:05.086Z,1.70
2018-12-14T16:31:32.582Z,1.60
2018-12-14T16:34:00.154Z,1.60
2018-12-14T16:36:27.631Z,1.60
2018-12-14T16:38:55.201Z,1.50
2018-12-14T16:41:22.826Z,1.50
2018-12-14T16:43:50.332Z,1.40
2018-12-14T16:46:17.845Z,1.40
2018-12-14T16:48:45.339Z,1.40
2018-12-14T16:51:12.854Z,1.40
2018-12-14T16:53:46.037Z,1.40
2018-12-14T16:56:13.608Z,1.40
2018-12-14T16:58:41.101Z,1.40
2018-12-14T17:01:08.598Z,1.50
2018-12-14T17:03:36.085Z,1.50
2018-12-14T17:06:03.574Z,1.50
2018-12-14T17:08:31.074Z,1.50
2018-12-14T17:10:58.563Z,1.50
2018-12-14T17:13:26.123Z,1.60
2018-12-14T17:15:53.641Z,1.60
2018-12-14T17:18:21.150Z,1.60
2018-12-14T17:20:48.629Z,1.50
2018-12-14T17:23:16.126Z,1.50
2018-12-14T17:25:43.632Z,1.50
2018-12-14T17:28:11.475Z,1.50
2018-12-14T17:30:38.963Z,1.50
2018-12-14T17:33:06.599Z,1.50
2018-12-14T17:35:34.125Z,1.50
2018-12-14T17:38:01.659Z,1.50
2018-12-14T17:40:29.190Z,1.50
2018-12-14T17:42:56.762Z,1.50
2018-12-14T17:45:24.317Z,1.50
2018-12-14T17:47:51.821Z,1.50
2018-12-14T17:50:19.371Z,1.50
2018-12-14T17:52:46.860Z,1.50
2018-12-14T17:55:14.356Z,1.50
2018-12-14T17:57:41.848Z,1.50
2018-12-14T18:00:09.438Z,1.50
2018-12-14T18:02:36.915Z,1.40
2018-12-14T18:05:04.806Z,1.40
2018-12-14T18:07:32.317Z,1.40
2018-12-14T18:09:59.848Z,1.40
2018-12-14T18:12:27.415Z,1.40
2018-12-14T18:14:54.973Z,1.40
2018-12-14T18:17:22.458Z,1.40
2018-12-14T18:19:49.976Z,1.40
2018-12-14T18:22:17.981Z,1.40
2018-12-14T18:24:45.496Z,1.40
2018-12-14T18:27:13.013Z,1.40
2018-12-14T18:29:40.488Z,1.40
2018-12-14T18:32:08.070Z,1.40
2018-12-14T18:34:35.564Z,1.40
2018-12-14T18:37:03.106Z,1.40
2018-12-14T18:39:30.774Z,1.40
2018-12-14T18:41:58.346Z,1.40
2018-12-14T18:44:25.902Z,1.50
2018-12-14T18:46:53.464Z,1.50
2018-12-14T18:49:21.036Z,1.50
2018-12-14T18:51:48.578Z,1.50
2018-12-14T18:54:16.372Z,1.50
2018-12-14T18:56:43.922Z,1.50
2018-12-14T18:59:11.651Z,1.50
2018-12-14T19:01:39.208Z,1.40
2018-12-14T19:04:06.688Z,1.40
2018-12-14T19:06:34.229Z,1.30
2018-12-14T19:09:01.718Z,1.30
2018-12-14T19:11:29.311Z,1.30
2018-12-14T19:13:56.862Z,1.30
2018-12-14T19:16:24.417Z,1.40
2018-12-14T19:18:53.116Z,1.40
2018-12-14T19:21:20.888Z,1.40
2018-12-14T19:23:48.405Z,1.40
2018-12-14T19:26:15.898Z,1.30
2018-12-14T19:28:43.433Z,1.30
2018-12-14T19:31:10.922Z,1.20
2018-12-14T19:33:38.435Z,1.30
2018-12-14T19:38:41.490Z,1.30
2018-12-14T19:41:10.825Z,1.30
2018-12-14T19:43:38.377Z,1.40
2018-12-14T19:46:06.517Z,1.40
2018-12-14T19:48:34.340Z,1.40
2018-12-14T19:51:01.823Z,1.40
2018-12-14T19:53:29.334Z,1.50
2018-12-14T19:55:56.801Z,1.50
2018-12-14T19:58:24.311Z,1.50
2018-12-14T20:00:51.840Z,1.50
2018-12-14T20:03:19.411Z,1.50
2018-12-14T20:05:46.991Z,1.50
2018-12-14T20:08:14.538Z,1.50
2018-12-14T20:10:42.020Z,1.40
2018-12-14T20:13:09.521Z,1.30
2018-12-14T20:15:37.116Z,1.30
2018-12-14T20:18:04.625Z,1.30
2018-12-14T20:20:32.127Z,1.30
2018-12-14T20:22:59.692Z,1.40
2018-12-14T20:25:27.164Z,1.30
2018-12-14T20:27:54.690Z,1.30
2018-12-14T20:30:22.179Z,1.30
2018-12-14T20:32:49.659Z,1.30
2018-12-14T20:35:17.458Z,1.20
2018-12-14T20:37:45.252Z,1.20
2018-12-14T20:40:12.825Z,1.10
2018-12-14T20:42:40.311Z,1.20
2018-12-14T20:45:07.812Z,1.20
2018-12-14T20:47:35.389Z,1.20
2018-12-14T20:50:03.008Z,1.30
2018-12-14T20:52:30.476Z,1.30
2018-12-14T20:54:57.992Z,1.20
2018-12-14T20:57:25.553Z,1.20
2018-12-14T20:59:53.070Z,1.20
2018-12-14T21:02:20.674Z,1.20
2018-12-14T21:04:48.223Z,1.20
2018-12-14T21:07:15.709Z,1.20
2018-12-14T21:09:43.242Z,1.20
2018-12-14T21:12:10.714Z,1.20
2018-12-14T21:14:38.432Z,1.20
2018-12-14T21:17:05.922Z,1.20
2018-12-14T21:19:33.433Z,1.20
2018-12-14T21:22:00.944Z,1.10
2018-12-14T21:24:28.492Z,1.10
2018-12-14T21:26:55.965Z,1.00
2018-12-14T21:29:23.528Z,1.00
2018-12-14T21:31:51.011Z,1.00
2018-12-14T21:34:18.533Z,1.00
2018-12-14T21:36:46.028Z,1.00
2018-12-14T21:39:13.509Z,1.00
2018-12-14T21:41:41.006Z,1.00
2018-12-14T21:44:08.518Z,1.10
2018-12-14T21:46:36.041Z,1.10
2018-12-14T21:49:03.513Z,1.10
2018-12-14T21:51:31.060Z,1.10
2018-12-14T21:53:58.545Z,1.00
2018-12-14T21:56:26.038Z,1.00
2018-12-14T21:58:53.566Z,1.10
2018-12-14T22:01:21.065Z,1.10
2018-12-14T22:03:48.660Z,1.00
2018-12-14T22:06:16.226Z,1.00
2018-12-14T22:08:43.778Z,1.00
2018-12-14T22:11:11.313Z,0.90
2018-12-14T22:13:38.827Z,0.90
2018-12-14T22:16:06.383Z,0.90
2018-12-14T22:18:33.850Z,0.90
2018-12-14T22:21:01.387Z,1.00
2018-12-14T22:23:28.957Z,0.90
2018-12-14T22:25:56.489Z,1.00
2018-12-14T22:28:24.075Z,0.90
2018-12-14T22:30:51.565Z,0.90
2018-12-14T22:33:19.099Z,0.90
2018-12-14T22:35:46.683Z,0.90
2018-12-14T22:38:14.176Z,1.00
2018-12-14T22:40:41.665Z,1.00
2018-12-14T22:43:09.164Z,1.00
2018-12-14T22:45:36.643Z,0.90
2018-12-14T22:48:04.129Z,0.90
2018-12-14T22:50:31.707Z,0.90
2018-12-14T22:52:59.200Z,0.90
2018-12-14T22:55:26.718Z,1.00
2018-12-14T22:57:54.309Z,1.00
2018-12-14T23:00:22.088Z,1.00
2018-12-14T23:02:49.642Z,1.00
2018-12-14T23:05:17.124Z,1.00
2018-12-14T23:07:44.628Z,1.00
2018-12-14T23:10:12.148Z,1.10
2018-12-14T23:12:39.662Z,1.10
2018-12-14T23:15:07.351Z,1.20
2018-12-14T23:17:34.850Z,1.10
2018-12-14T23:20:02.432Z,1.10
2018-12-14T23:22:29.955Z,1.10
2018-12-14T23:24:57.446Z,1.10
2018-12-14T23:27:24.928Z,1.00
2018-12-14T23:29:52.423Z,1.10
2018-12-14T23:32:19.926Z,1.00
2018-12-14T23:34:47.407Z,1.00
2018-12-14T23:37:14.941Z,1.00
2018-12-14T23:39:42.443Z,1.20
2018-12-14T23:42:09.924Z,1.00
2018-12-14T23:44:37.416Z,1.00
2018-12-14T23:47:06.804Z,1.00
2018-12-14T23:49:34.292Z,1.00
2018-12-14T23:52:01.824Z,1.00
2018-12-14T23:54:29.325Z,1.00
2018-12-14T23:56:56.805Z,1.00
2018-12-14T23:59:24.294Z,0.90
